sensor_id;sensor_type;location;lat;lon;timestamp;P1;durP1;ratioP1;P2;durP2;ratioP2
38113;SDS011;23926;53.222;6.354;2022-10-13T00:00:22;28.50;;;15.40;;
38113;SDS011;23926;53.222;6.354;2022-10-13T00:02:47;27.90;;;14.82;;
38113;SDS011;23926;53.222;6.354;2022-10-13T00:05:12;24.05;;;13.90;;
38113;SDS011;23926;53.222;6.354;2022-10-13T00:07:38;24.40;;;15.05;;
38113;SDS011;23926;53.222;6.354;2022-10-13T00:10:03;26.98;;;15.05;;
38113;SDS011;23926;53.222;6.354;2022-10-13T00:12:29;27.75;;;13.77;;
38113;SDS011;23926;53.222;6.354;2022-10-13T00:14:54;26.90;;;14.40;;
38113;SDS011;23926;53.222;6.354;2022-10-13T00:17:20;28.85;;;15.73;;
38113;SDS011;23926;53.222;6.354;2022-10-13T00:19:45;27.52;;;15.65;;
38113;SDS011;23926;53.222;6.354;2022-10-13T00:22:10;34.55;;;17.75;;
38113;SDS011;23926;53.222;6.354;2022-10-13T00:24:36;32.53;;;16.95;;
38113;SDS011;23926;53.222;6.354;2022-10-13T00:27:01;25.58;;;14.77;;
38113;SDS011;23926;53.222;6.354;2022-10-13T00:29:27;26.65;;;16.80;;
38113;SDS011;23926;53.222;6.354;2022-10-13T00:31:52;20.35;;;10.95;;
38113;SDS011;23926;53.222;6.354;2022-10-13T00:34:17;23.52;;;13.10;;
38113;SDS011;23926;53.222;6.354;2022-10-13T00:36:43;30.88;;;16.10;;
38113;SDS011;23926;53.222;6.354;2022-10-13T00:39:08;20.13;;;11.60;;
38113;SDS011;23926;53.222;6.354;2022-10-13T00:41:34;22.98;;;13.32;;
38113;SDS011;23926;53.222;6.354;2022-10-13T00:46:30;28.85;;;14.50;;
38113;SDS011;23926;53.222;6.354;2022-10-13T00:48:58;30.40;;;14.77;;
38113;SDS011;23926;53.222;6.354;2022-10-13T00:51:32;24.98;;;14.60;;
38113;SDS011;23926;53.222;6.354;2022-10-13T00:54:00;33.58;;;18.52;;
38113;SDS011;23926;53.222;6.354;2022-10-13T00:56:27;22.10;;;14.25;;
38113;SDS011;23926;53.222;6.354;2022-10-13T00:58:53;24.45;;;14.63;;
38113;SDS011;23926;53.222;6.354;2022-10-13T01:01:20;29.52;;;15.68;;
38113;SDS011;23926;53.222;6.354;2022-10-13T01:03:45;29.05;;;16.35;;
38113;SDS011;23926;53.222;6.354;2022-10-13T01:06:11;22.77;;;15.07;;
38113;SDS011;23926;53.222;6.354;2022-10-13T01:08:38;33.63;;;16.65;;
38113;SDS011;23926;53.222;6.354;2022-10-13T01:11:24;24.58;;;13.30;;
38113;SDS011;23926;53.222;6.354;2022-10-13T01:14:01;19.15;;;11.90;;
38113;SDS011;23926;53.222;6.354;2022-10-13T01:16:56;27.10;;;15.50;;
38113;SDS011;23926;53.222;6.354;2022-10-13T01:25:14;34.03;;;16.75;;
38113;SDS011;23926;53.222;6.354;2022-10-13T01:30:34;31.35;;;16.42;;
38113;SDS011;23926;53.222;6.354;2022-10-13T01:41:01;27.23;;;17.02;;
38113;SDS011;23926;53.222;6.354;2022-10-13T01:43:35;37.83;;;19.48;;
38113;SDS011;23926;53.222;6.354;2022-10-13T01:48:32;28.63;;;16.85;;
38113;SDS011;23926;53.222;6.354;2022-10-13T01:50:59;20.83;;;12.15;;
38113;SDS011;23926;53.222;6.354;2022-10-13T01:53:25;23.02;;;15.50;;
38113;SDS011;23926;53.222;6.354;2022-10-13T01:55:53;29.80;;;17.25;;
38113;SDS011;23926;53.222;6.354;2022-10-13T01:58:21;29.05;;;16.58;;
38113;SDS011;23926;53.222;6.354;2022-10-13T02:00:52;33.00;;;17.85;;
38113;SDS011;23926;53.222;6.354;2022-10-13T02:06:21;23.17;;;15.88;;
38113;SDS011;23926;53.222;6.354;2022-10-13T02:11:26;30.00;;;16.23;;
38113;SDS011;23926;53.222;6.354;2022-10-13T02:14:12;25.73;;;15.18;;
38113;SDS011;23926;53.222;6.354;2022-10-13T02:16:43;36.92;;;18.67;;
38113;SDS011;23926;53.222;6.354;2022-10-13T02:19:12;28.30;;;16.75;;
38113;SDS011;23926;53.222;6.354;2022-10-13T02:21:39;36.47;;;19.88;;
38113;SDS011;23926;53.222;6.354;2022-10-13T02:24:06;22.38;;;13.93;;
38113;SDS011;23926;53.222;6.354;2022-10-13T02:26:32;27.52;;;18.10;;
38113;SDS011;23926;53.222;6.354;2022-10-13T02:28:59;27.55;;;16.35;;
38113;SDS011;23926;53.222;6.354;2022-10-13T02:31:31;25.55;;;15.80;;
38113;SDS011;23926;53.222;6.354;2022-10-13T02:33:56;23.88;;;15.02;;
38113;SDS011;23926;53.222;6.354;2022-10-13T02:36:22;22.15;;;14.80;;
38113;SDS011;23926;53.222;6.354;2022-10-13T02:38:48;24.85;;;14.18;;
38113;SDS011;23926;53.222;6.354;2022-10-13T02:41:13;25.38;;;15.43;;
38113;SDS011;23926;53.222;6.354;2022-10-13T02:43:38;31.98;;;17.90;;
38113;SDS011;23926;53.222;6.354;2022-10-13T02:46:04;31.92;;;17.63;;
38113;SDS011;23926;53.222;6.354;2022-10-13T02:48:29;33.22;;;16.95;;
38113;SDS011;23926;53.222;6.354;2022-10-13T02:50:55;33.47;;;17.75;;
38113;SDS011;23926;53.222;6.354;2022-10-13T02:53:20;25.92;;;15.70;;
38113;SDS011;23926;53.222;6.354;2022-10-13T02:55:45;25.50;;;15.07;;
38113;SDS011;23926;53.222;6.354;2022-10-13T02:58:12;31.50;;;16.63;;
38113;SDS011;23926;53.222;6.354;2022-10-13T03:00:37;29.83;;;16.83;;
38113;SDS011;23926;53.222;6.354;2022-10-13T03:03:03;33.58;;;18.90;;
38113;SDS011;23926;53.222;6.354;2022-10-13T03:05:29;31.58;;;16.60;;
38113;SDS011;23926;53.222;6.354;2022-10-13T03:07:54;28.13;;;16.20;;
38113;SDS011;23926;53.222;6.354;2022-10-13T03:10:20;30.50;;;16.65;;
38113;SDS011;23926;53.222;6.354;2022-10-13T03:12:45;29.00;;;17.60;;
38113;SDS011;23926;53.222;6.354;2022-10-13T03:15:11;32.10;;;17.55;;
38113;SDS011;23926;53.222;6.354;2022-10-13T03:17:36;26.50;;;15.38;;
38113;SDS011;23926;53.222;6.354;2022-10-13T03:20:02;31.48;;;16.65;;
38113;SDS011;23926;53.222;6.354;2022-10-13T03:22:30;33.22;;;17.63;;
38113;SDS011;23926;53.222;6.354;2022-10-13T03:24:56;26.48;;;16.60;;
38113;SDS011;23926;53.222;6.354;2022-10-13T03:27:21;34.60;;;17.58;;
38113;SDS011;23926;53.222;6.354;2022-10-13T03:29:47;22.23;;;13.63;;
38113;SDS011;23926;53.222;6.354;2022-10-13T03:32:12;31.25;;;18.38;;
38113;SDS011;23926;53.222;6.354;2022-10-13T03:34:37;22.30;;;15.15;;
38113;SDS011;23926;53.222;6.354;2022-10-13T03:37:03;21.20;;;13.68;;
38113;SDS011;23926;53.222;6.354;2022-10-13T03:39:28;26.13;;;16.42;;
38113;SDS011;23926;53.222;6.354;2022-10-13T03:41:55;31.63;;;16.80;;
38113;SDS011;23926;53.222;6.354;2022-10-13T03:44:20;28.02;;;15.98;;
38113;SDS011;23926;53.222;6.354;2022-10-13T03:46:46;25.17;;;15.82;;
38113;SDS011;23926;53.222;6.354;2022-10-13T03:49:11;27.30;;;16.20;;
38113;SDS011;23926;53.222;6.354;2022-10-13T03:51:37;33.03;;;18.13;;
38113;SDS011;23926;53.222;6.354;2022-10-13T03:54:03;28.27;;;15.15;;
38113;SDS011;23926;53.222;6.354;2022-10-13T03:56:28;26.85;;;14.27;;
38113;SDS011;23926;53.222;6.354;2022-10-13T03:58:54;22.88;;;15.20;;
38113;SDS011;23926;53.222;6.354;2022-10-13T04:01:22;24.73;;;14.93;;
38113;SDS011;23926;53.222;6.354;2022-10-13T04:03:53;34.63;;;19.42;;
38113;SDS011;23926;53.222;6.354;2022-10-13T04:06:19;33.00;;;17.90;;
38113;SDS011;23926;53.222;6.354;2022-10-13T04:08:46;35.03;;;20.10;;
38113;SDS011;23926;53.222;6.354;2022-10-13T04:11:12;30.75;;;17.83;;
38113;SDS011;23926;53.222;6.354;2022-10-13T04:13:40;28.35;;;18.33;;
38113;SDS011;23926;53.222;6.354;2022-10-13T04:16:07;35.20;;;19.58;;
38113;SDS011;23926;53.222;6.354;2022-10-13T04:18:36;23.85;;;15.98;;
38113;SDS011;23926;53.222;6.354;2022-10-13T04:21:06;27.67;;;14.60;;
38113;SDS011;23926;53.222;6.354;2022-10-13T04:23:32;28.00;;;17.15;;
38113;SDS011;23926;53.222;6.354;2022-10-13T04:25:58;25.27;;;14.70;;
38113;SDS011;23926;53.222;6.354;2022-10-13T04:28:23;38.08;;;21.65;;
38113;SDS011;23926;53.222;6.354;2022-10-13T04:30:48;29.45;;;17.98;;
38113;SDS011;23926;53.222;6.354;2022-10-13T04:33:14;26.38;;;17.60;;
38113;SDS011;23926;53.222;6.354;2022-10-13T04:35:39;35.45;;;19.45;;
38113;SDS011;23926;53.222;6.354;2022-10-13T04:38:05;32.63;;;19.35;;
38113;SDS011;23926;53.222;6.354;2022-10-13T04:40:31;34.00;;;18.20;;
38113;SDS011;23926;53.222;6.354;2022-10-13T04:42:58;33.10;;;20.30;;
38113;SDS011;23926;53.222;6.354;2022-10-13T04:45:23;30.77;;;18.33;;
38113;SDS011;23926;53.222;6.354;2022-10-13T04:47:48;25.65;;;17.30;;
38113;SDS011;23926;53.222;6.354;2022-10-13T04:50:14;37.35;;;20.98;;
38113;SDS011;23926;53.222;6.354;2022-10-13T04:52:40;37.22;;;20.05;;
38113;SDS011;23926;53.222;6.354;2022-10-13T04:55:05;31.65;;;18.63;;
38113;SDS011;23926;53.222;6.354;2022-10-13T04:57:31;27.25;;;16.67;;
38113;SDS011;23926;53.222;6.354;2022-10-13T04:59:56;44.50;;;22.17;;
38113;SDS011;23926;53.222;6.354;2022-10-13T05:02:22;35.88;;;20.08;;
38113;SDS011;23926;53.222;6.354;2022-10-13T05:04:47;35.85;;;21.50;;
38113;SDS011;23926;53.222;6.354;2022-10-13T05:07:13;38.15;;;19.67;;
38113;SDS011;23926;53.222;6.354;2022-10-13T05:09:38;44.33;;;22.25;;
38113;SDS011;23926;53.222;6.354;2022-10-13T05:12:03;43.92;;;23.27;;
38113;SDS011;23926;53.222;6.354;2022-10-13T05:14:30;27.38;;;16.65;;
38113;SDS011;23926;53.222;6.354;2022-10-13T05:16:57;33.85;;;18.10;;
38113;SDS011;23926;53.222;6.354;2022-10-13T05:19:22;28.45;;;16.48;;
38113;SDS011;23926;53.222;6.354;2022-10-13T05:21:48;49.85;;;25.25;;
38113;SDS011;23926;53.222;6.354;2022-10-13T05:24:13;27.30;;;17.35;;
38113;SDS011;23926;53.222;6.354;2022-10-13T05:26:40;31.92;;;19.38;;
38113;SDS011;23926;53.222;6.354;2022-10-13T05:29:06;27.23;;;16.83;;
38113;SDS011;23926;53.222;6.354;2022-10-13T05:31:32;40.53;;;21.35;;
38113;SDS011;23926;53.222;6.354;2022-10-13T05:33:58;44.28;;;23.23;;
38113;SDS011;23926;53.222;6.354;2022-10-13T05:36:25;32.13;;;20.83;;
38113;SDS011;23926;53.222;6.354;2022-10-13T05:38:59;36.42;;;20.08;;
38113;SDS011;23926;53.222;6.354;2022-10-13T05:41:29;42.78;;;21.35;;
38113;SDS011;23926;53.222;6.354;2022-10-13T05:43:56;28.73;;;17.48;;
38113;SDS011;23926;53.222;6.354;2022-10-13T05:46:26;36.78;;;20.95;;
38113;SDS011;23926;53.222;6.354;2022-10-13T05:48:51;36.53;;;21.58;;
38113;SDS011;23926;53.222;6.354;2022-10-13T05:51:34;52.55;;;24.48;;
38113;SDS011;23926;53.222;6.354;2022-10-13T05:54:03;31.85;;;19.27;;
38113;SDS011;23926;53.222;6.354;2022-10-13T05:56:45;29.52;;;18.38;;
38113;SDS011;23926;53.222;6.354;2022-10-13T05:59:14;37.97;;;22.13;;
38113;SDS011;23926;53.222;6.354;2022-10-13T06:01:43;38.60;;;23.23;;
38113;SDS011;23926;53.222;6.354;2022-10-13T06:04:17;27.23;;;16.85;;
38113;SDS011;23926;53.222;6.354;2022-10-13T06:06:47;27.45;;;18.30;;
38113;SDS011;23926;53.222;6.354;2022-10-13T06:09:13;31.20;;;19.40;;
38113;SDS011;23926;53.222;6.354;2022-10-13T06:11:39;30.40;;;20.27;;
38113;SDS011;23926;53.222;6.354;2022-10-13T06:14:04;38.35;;;22.02;;
38113;SDS011;23926;53.222;6.354;2022-10-13T06:16:30;32.58;;;20.88;;
38113;SDS011;23926;53.222;6.354;2022-10-13T06:18:56;40.40;;;21.27;;
38113;SDS011;23926;53.222;6.354;2022-10-13T06:21:21;45.72;;;23.85;;
38113;SDS011;23926;53.222;6.354;2022-10-13T06:23:46;57.13;;;26.35;;
38113;SDS011;23926;53.222;6.354;2022-10-13T06:26:12;40.10;;;24.35;;
38113;SDS011;23926;53.222;6.354;2022-10-13T06:28:37;36.72;;;21.77;;
38113;SDS011;23926;53.222;6.354;2022-10-13T06:31:04;37.30;;;22.65;;
38113;SDS011;23926;53.222;6.354;2022-10-13T06:33:30;40.53;;;23.05;;
38113;SDS011;23926;53.222;6.354;2022-10-13T06:35:59;38.55;;;23.73;;
38113;SDS011;23926;53.222;6.354;2022-10-13T06:38:26;34.03;;;22.10;;
38113;SDS011;23926;53.222;6.354;2022-10-13T06:40:51;34.45;;;20.30;;
38113;SDS011;23926;53.222;6.354;2022-10-13T06:43:17;42.95;;;23.70;;
38113;SDS011;23926;53.222;6.354;2022-10-13T06:45:42;41.42;;;23.13;;
38113;SDS011;23926;53.222;6.354;2022-10-13T06:48:07;41.42;;;23.60;;
38113;SDS011;23926;53.222;6.354;2022-10-13T06:50:33;39.03;;;24.42;;
38113;SDS011;23926;53.222;6.354;2022-10-13T06:52:58;34.67;;;22.00;;
38113;SDS011;23926;53.222;6.354;2022-10-13T06:55:23;36.95;;;23.92;;
38113;SDS011;23926;53.222;6.354;2022-10-13T06:57:49;49.08;;;26.02;;
38113;SDS011;23926;53.222;6.354;2022-10-13T07:00:14;46.15;;;26.30;;
38113;SDS011;23926;53.222;6.354;2022-10-13T07:02:40;42.17;;;27.00;;
38113;SDS011;23926;53.222;6.354;2022-10-13T07:05:05;43.78;;;26.15;;
38113;SDS011;23926;53.222;6.354;2022-10-13T07:07:31;36.58;;;22.38;;
38113;SDS011;23926;53.222;6.354;2022-10-13T07:09:56;37.20;;;21.58;;
38113;SDS011;23926;53.222;6.354;2022-10-13T07:12:22;49.28;;;26.77;;
38113;SDS011;23926;53.222;6.354;2022-10-13T07:14:47;43.70;;;24.92;;
38113;SDS011;23926;53.222;6.354;2022-10-13T07:17:13;36.42;;;22.20;;
38113;SDS011;23926;53.222;6.354;2022-10-13T07:19:38;39.65;;;23.42;;
38113;SDS011;23926;53.222;6.354;2022-10-13T07:22:04;37.92;;;23.33;;
38113;SDS011;23926;53.222;6.354;2022-10-13T07:24:29;42.15;;;24.70;;
38113;SDS011;23926;53.222;6.354;2022-10-13T07:26:54;46.28;;;26.88;;
38113;SDS011;23926;53.222;6.354;2022-10-13T07:29:20;35.55;;;23.50;;
38113;SDS011;23926;53.222;6.354;2022-10-13T07:31:45;33.25;;;21.13;;
38113;SDS011;23926;53.222;6.354;2022-10-13T07:34:11;54.90;;;28.38;;
38113;SDS011;23926;53.222;6.354;2022-10-13T07:36:37;37.38;;;23.70;;
38113;SDS011;23926;53.222;6.354;2022-10-13T07:39:05;44.05;;;24.77;;
38113;SDS011;23926;53.222;6.354;2022-10-13T07:41:31;44.15;;;26.35;;
38113;SDS011;23926;53.222;6.354;2022-10-13T07:43:57;42.70;;;25.33;;
38113;SDS011;23926;53.222;6.354;2022-10-13T07:46:23;37.15;;;24.35;;
38113;SDS011;23926;53.222;6.354;2022-10-13T07:48:50;50.13;;;27.52;;
38113;SDS011;23926;53.222;6.354;2022-10-13T07:51:17;34.25;;;21.60;;
38113;SDS011;23926;53.222;6.354;2022-10-13T07:53:43;40.17;;;24.17;;
38113;SDS011;23926;53.222;6.354;2022-10-13T07:56:10;34.28;;;22.90;;
38113;SDS011;23926;53.222;6.354;2022-10-13T07:58:38;42.10;;;24.52;;
38113;SDS011;23926;53.222;6.354;2022-10-13T08:01:05;42.08;;;25.40;;
38113;SDS011;23926;53.222;6.354;2022-10-13T08:03:31;39.85;;;23.98;;
38113;SDS011;23926;53.222;6.354;2022-10-13T08:06:00;59.42;;;28.42;;
38113;SDS011;23926;53.222;6.354;2022-10-13T08:08:26;40.30;;;25.38;;
38113;SDS011;23926;53.222;6.354;2022-10-13T08:10:52;42.45;;;27.90;;
38113;SDS011;23926;53.222;6.354;2022-10-13T08:13:18;43.97;;;26.25;;
38113;SDS011;23926;53.222;6.354;2022-10-13T08:15:43;46.72;;;25.98;;
38113;SDS011;23926;53.222;6.354;2022-10-13T08:18:10;37.38;;;23.48;;
38113;SDS011;23926;53.222;6.354;2022-10-13T08:20:38;36.20;;;24.23;;
38113;SDS011;23926;53.222;6.354;2022-10-13T08:23:04;37.88;;;24.33;;
38113;SDS011;23926;53.222;6.354;2022-10-13T08:25:30;50.60;;;29.23;;
38113;SDS011;23926;53.222;6.354;2022-10-13T08:28:00;40.97;;;25.33;;
38113;SDS011;23926;53.222;6.354;2022-10-13T08:30:26;42.47;;;23.73;;
38113;SDS011;23926;53.222;6.354;2022-10-13T08:32:51;39.17;;;25.27;;
38113;SDS011;23926;53.222;6.354;2022-10-13T08:35:16;34.25;;;21.63;;
38113;SDS011;23926;53.222;6.354;2022-10-13T08:37:42;37.38;;;21.83;;
38113;SDS011;23926;53.222;6.354;2022-10-13T08:40:19;54.60;;;28.42;;
38113;SDS011;23926;53.222;6.354;2022-10-13T08:42:47;45.78;;;28.48;;
38113;SDS011;23926;53.222;6.354;2022-10-13T08:45:15;34.03;;;23.10;;
38113;SDS011;23926;53.222;6.354;2022-10-13T08:50:23;47.72;;;27.63;;
38113;SDS011;23926;53.222;6.354;2022-10-13T08:55:30;34.35;;;22.85;;
38113;SDS011;23926;53.222;6.354;2022-10-13T08:57:59;39.60;;;25.38;;
38113;SDS011;23926;53.222;6.354;2022-10-13T09:00:30;46.63;;;26.73;;
38113;SDS011;23926;53.222;6.354;2022-10-13T09:05:57;38.88;;;24.27;;
38113;SDS011;23926;53.222;6.354;2022-10-13T09:08:32;60.83;;;30.88;;
38113;SDS011;23926;53.222;6.354;2022-10-13T09:11:03;44.55;;;26.33;;
38113;SDS011;23926;53.222;6.354;2022-10-13T09:13:28;51.45;;;31.42;;
38113;SDS011;23926;53.222;6.354;2022-10-13T09:15:54;46.00;;;29.50;;
38113;SDS011;23926;53.222;6.354;2022-10-13T09:18:20;42.60;;;25.70;;
38113;SDS011;23926;53.222;6.354;2022-10-13T09:20:56;51.75;;;29.77;;
38113;SDS011;23926;53.222;6.354;2022-10-13T09:23:44;43.75;;;26.77;;
38113;SDS011;23926;53.222;6.354;2022-10-13T09:26:15;42.63;;;27.42;;
38113;SDS011;23926;53.222;6.354;2022-10-13T09:28:44;45.55;;;30.13;;
38113;SDS011;23926;53.222;6.354;2022-10-13T09:31:23;39.45;;;26.95;;
38113;SDS011;23926;53.222;6.354;2022-10-13T09:34:00;39.65;;;25.27;;
38113;SDS011;23926;53.222;6.354;2022-10-13T09:36:33;42.80;;;27.63;;
38113;SDS011;23926;53.222;6.354;2022-10-13T09:39:14;47.00;;;28.30;;
38113;SDS011;23926;53.222;6.354;2022-10-13T09:41:41;42.97;;;25.40;;
38113;SDS011;23926;53.222;6.354;2022-10-13T09:44:17;46.53;;;29.38;;
38113;SDS011;23926;53.222;6.354;2022-10-13T09:46:52;48.83;;;30.00;;
38113;SDS011;23926;53.222;6.354;2022-10-13T09:52:12;45.38;;;28.27;;
38113;SDS011;23926;53.222;6.354;2022-10-13T09:54:42;60.95;;;30.98;;
38113;SDS011;23926;53.222;6.354;2022-10-13T10:00:28;48.58;;;28.63;;
38113;SDS011;23926;53.222;6.354;2022-10-13T10:07:55;41.95;;;26.98;;
38113;SDS011;23926;53.222;6.354;2022-10-13T10:12:57;38.38;;;25.60;;
38113;SDS011;23926;53.222;6.354;2022-10-13T10:15:25;47.08;;;28.63;;
38113;SDS011;23926;53.222;6.354;2022-10-13T10:18:13;46.60;;;27.00;;
38113;SDS011;23926;53.222;6.354;2022-10-13T10:20:53;43.00;;;25.73;;
38113;SDS011;23926;53.222;6.354;2022-10-13T10:26:34;41.60;;;25.38;;
38113;SDS011;23926;53.222;6.354;2022-10-13T10:35:12;60.58;;;31.00;;
38113;SDS011;23926;53.222;6.354;2022-10-13T10:40:35;47.70;;;29.27;;
38113;SDS011;23926;53.222;6.354;2022-10-13T10:45:56;40.50;;;24.05;;
38113;SDS011;23926;53.222;6.354;2022-10-13T10:48:24;36.75;;;23.95;;
38113;SDS011;23926;53.222;6.354;2022-10-13T10:50:54;42.83;;;26.48;;
38113;SDS011;23926;53.222;6.354;2022-10-13T10:56:02;39.92;;;25.58;;
38113;SDS011;23926;53.222;6.354;2022-10-13T11:07:09;36.40;;;24.45;;
38113;SDS011;23926;53.222;6.354;2022-10-13T11:12:20;28.05;;;20.33;;
38113;SDS011;23926;53.222;6.354;2022-10-13T11:17:31;45.22;;;27.15;;
38113;SDS011;23926;53.222;6.354;2022-10-13T11:19:58;50.13;;;29.15;;
38113;SDS011;23926;53.222;6.354;2022-10-13T11:22:28;42.33;;;26.77;;
38113;SDS011;23926;53.222;6.354;2022-10-13T11:24:55;38.53;;;24.55;;
38113;SDS011;23926;53.222;6.354;2022-10-13T11:27:47;33.97;;;21.73;;
38113;SDS011;23926;53.222;6.354;2022-10-13T11:33:30;32.90;;;22.77;;
38113;SDS011;23926;53.222;6.354;2022-10-13T11:38:42;28.70;;;19.67;;
38113;SDS011;23926;53.222;6.354;2022-10-13T11:41:14;31.92;;;22.13;;
38113;SDS011;23926;53.222;6.354;2022-10-13T11:43:58;31.90;;;21.25;;
38113;SDS011;23926;53.222;6.354;2022-10-13T11:49:41;33.72;;;21.80;;
38113;SDS011;23926;53.222;6.354;2022-10-13T11:58:19;34.55;;;23.25;;
38113;SDS011;23926;53.222;6.354;2022-10-13T12:00:56;24.17;;;17.92;;
38113;SDS011;23926;53.222;6.354;2022-10-13T12:03:37;24.45;;;17.70;;
38113;SDS011;23926;53.222;6.354;2022-10-13T12:06:05;26.73;;;20.33;;
38113;SDS011;23926;53.222;6.354;2022-10-13T12:08:47;24.15;;;17.00;;
38113;SDS011;23926;53.222;6.354;2022-10-13T12:11:21;22.50;;;16.10;;
38113;SDS011;23926;53.222;6.354;2022-10-13T12:13:49;31.40;;;21.90;;
38113;SDS011;23926;53.222;6.354;2022-10-13T12:16:15;30.10;;;20.42;;
38113;SDS011;23926;53.222;6.354;2022-10-13T12:18:40;20.05;;;15.13;;
38113;SDS011;23926;53.222;6.354;2022-10-13T12:21:13;19.58;;;14.45;;
38113;SDS011;23926;53.222;6.354;2022-10-13T12:23:41;29.38;;;19.23;;
38113;SDS011;23926;53.222;6.354;2022-10-13T12:26:07;27.63;;;18.67;;
38113;SDS011;23926;53.222;6.354;2022-10-13T12:29:00;29.02;;;19.98;;
38113;SDS011;23926;53.222;6.354;2022-10-13T12:31:28;21.15;;;16.17;;
38113;SDS011;23926;53.222;6.354;2022-10-13T12:34:02;21.65;;;15.32;;
38113;SDS011;23926;53.222;6.354;2022-10-13T12:36:28;29.38;;;16.92;;
38113;SDS011;23926;53.222;6.354;2022-10-13T12:38:59;24.08;;;16.08;;
38113;SDS011;23926;53.222;6.354;2022-10-13T12:41:30;22.38;;;12.65;;
38113;SDS011;23926;53.222;6.354;2022-10-13T12:43:57;18.67;;;13.55;;
38113;SDS011;23926;53.222;6.354;2022-10-13T12:49:28;19.27;;;15.50;;
38113;SDS011;23926;53.222;6.354;2022-10-13T12:52:04;20.17;;;14.32;;
38113;SDS011;23926;53.222;6.354;2022-10-13T12:54:38;19.15;;;13.40;;
38113;SDS011;23926;53.222;6.354;2022-10-13T12:57:21;21.67;;;16.83;;
38113;SDS011;23926;53.222;6.354;2022-10-13T13:00:00;19.08;;;13.38;;
38113;SDS011;23926;53.222;6.354;2022-10-13T13:02:30;19.63;;;13.75;;
38113;SDS011;23926;53.222;6.354;2022-10-13T13:04:56;24.90;;;14.98;;
38113;SDS011;23926;53.222;6.354;2022-10-13T13:07:32;17.67;;;13.48;;
38113;SDS011;23926;53.222;6.354;2022-10-13T13:12:37;20.17;;;13.70;;
38113;SDS011;23926;53.222;6.354;2022-10-13T13:15:17;19.75;;;12.60;;
38113;SDS011;23926;53.222;6.354;2022-10-13T13:17:43;14.57;;;11.98;;
38113;SDS011;23926;53.222;6.354;2022-10-13T13:22:50;22.55;;;13.70;;
38113;SDS011;23926;53.222;6.354;2022-10-13T13:25:16;18.58;;;14.00;;
38113;SDS011;23926;53.222;6.354;2022-10-13T13:27:41;16.30;;;13.02;;
38113;SDS011;23926;53.222;6.354;2022-10-13T13:30:14;21.73;;;13.05;;
38113;SDS011;23926;53.222;6.354;2022-10-13T13:32:42;18.63;;;11.55;;
38113;SDS011;23926;53.222;6.354;2022-10-13T13:35:07;16.30;;;11.48;;
38113;SDS011;23926;53.222;6.354;2022-10-13T13:40:18;20.48;;;13.60;;
38113;SDS011;23926;53.222;6.354;2022-10-13T13:42:48;21.45;;;13.27;;
38113;SDS011;23926;53.222;6.354;2022-10-13T13:45:13;17.67;;;11.82;;
38113;SDS011;23926;53.222;6.354;2022-10-13T13:47:40;17.98;;;11.90;;
38113;SDS011;23926;53.222;6.354;2022-10-13T13:50:12;21.65;;;14.18;;
38113;SDS011;23926;53.222;6.354;2022-10-13T13:52:41;19.20;;;14.73;;
38113;SDS011;23926;53.222;6.354;2022-10-13T13:55:06;17.98;;;13.15;;
38113;SDS011;23926;53.222;6.354;2022-10-13T13:57:32;19.73;;;14.40;;
38113;SDS011;23926;53.222;6.354;2022-10-13T13:59:57;18.40;;;14.15;;
38113;SDS011;23926;53.222;6.354;2022-10-13T14:02:23;14.50;;;11.70;;
38113;SDS011;23926;53.222;6.354;2022-10-13T14:04:48;14.98;;;12.10;;
38113;SDS011;23926;53.222;6.354;2022-10-13T14:07:15;16.48;;;13.20;;
38113;SDS011;23926;53.222;6.354;2022-10-13T14:09:41;19.67;;;13.75;;
38113;SDS011;23926;53.222;6.354;2022-10-13T14:12:07;25.00;;;17.25;;
38113;SDS011;23926;53.222;6.354;2022-10-13T14:14:32;16.08;;;12.98;;
38113;SDS011;23926;53.222;6.354;2022-10-13T14:16:58;17.52;;;12.45;;
38113;SDS011;23926;53.222;6.354;2022-10-13T14:19:25;16.05;;;11.63;;
38113;SDS011;23926;53.222;6.354;2022-10-13T14:21:51;17.20;;;13.50;;
38113;SDS011;23926;53.222;6.354;2022-10-13T14:24:16;21.98;;;15.63;;
38113;SDS011;23926;53.222;6.354;2022-10-13T14:26:42;18.10;;;13.02;;
38113;SDS011;23926;53.222;6.354;2022-10-13T14:29:08;21.60;;;16.73;;
38113;SDS011;23926;53.222;6.354;2022-10-13T14:31:33;19.58;;;13.02;;
38113;SDS011;23926;53.222;6.354;2022-10-13T14:33:59;27.85;;;18.30;;
38113;SDS011;23926;53.222;6.354;2022-10-13T14:36:24;24.02;;;16.52;;
38113;SDS011;23926;53.222;6.354;2022-10-13T14:38:50;21.48;;;14.93;;
38113;SDS011;23926;53.222;6.354;2022-10-13T14:41:15;19.13;;;13.73;;
38113;SDS011;23926;53.222;6.354;2022-10-13T14:43:42;19.45;;;12.82;;
38113;SDS011;23926;53.222;6.354;2022-10-13T14:46:07;23.40;;;15.60;;
38113;SDS011;23926;53.222;6.354;2022-10-13T14:48:34;21.52;;;16.10;;
38113;SDS011;23926;53.222;6.354;2022-10-13T14:51:04;21.77;;;16.13;;
38113;SDS011;23926;53.222;6.354;2022-10-13T14:53:34;26.63;;;18.85;;
38113;SDS011;23926;53.222;6.354;2022-10-13T14:56:00;18.83;;;13.20;;
38113;SDS011;23926;53.222;6.354;2022-10-13T14:58:26;20.17;;;14.85;;
38113;SDS011;23926;53.222;6.354;2022-10-13T15:00:51;28.40;;;19.10;;
38113;SDS011;23926;53.222;6.354;2022-10-13T15:03:19;25.98;;;18.33;;
38113;SDS011;23926;53.222;6.354;2022-10-13T15:05:45;25.58;;;17.27;;
38113;SDS011;23926;53.222;6.354;2022-10-13T15:08:10;26.83;;;17.30;;
38113;SDS011;23926;53.222;6.354;2022-10-13T15:10:35;39.30;;;23.10;;
38113;SDS011;23926;53.222;6.354;2022-10-13T15:13:01;23.80;;;16.30;;
38113;SDS011;23926;53.222;6.354;2022-10-13T15:15:26;33.42;;;21.05;;
38113;SDS011;23926;53.222;6.354;2022-10-13T15:17:52;31.25;;;20.30;;
38113;SDS011;23926;53.222;6.354;2022-10-13T15:20:18;30.90;;;20.30;;
38113;SDS011;23926;53.222;6.354;2022-10-13T15:22:43;29.23;;;18.60;;
38113;SDS011;23926;53.222;6.354;2022-10-13T15:25:10;21.58;;;11.93;;
38113;SDS011;23926;53.222;6.354;2022-10-13T15:27:36;9.93;;;6.18;;
38113;SDS011;23926;53.222;6.354;2022-10-13T15:30:03;15.50;;;5.32;;
38113;SDS011;23926;53.222;6.354;2022-10-13T15:32:30;7.13;;;4.05;;
38113;SDS011;23926;53.222;6.354;2022-10-13T15:34:56;8.43;;;3.53;;
38113;SDS011;23926;53.222;6.354;2022-10-13T15:37:21;6.15;;;3.05;;
38113;SDS011;23926;53.222;6.354;2022-10-13T15:39:46;10.27;;;4.28;;
38113;SDS011;23926;53.222;6.354;2022-10-13T15:42:12;7.63;;;4.28;;
38113;SDS011;23926;53.222;6.354;2022-10-13T15:44:38;11.57;;;5.20;;
38113;SDS011;23926;53.222;6.354;2022-10-13T15:47:03;8.52;;;3.13;;
38113;SDS011;23926;53.222;6.354;2022-10-13T15:49:28;7.32;;;3.03;;
38113;SDS011;23926;53.222;6.354;2022-10-13T15:51:54;10.27;;;4.10;;
38113;SDS011;23926;53.222;6.354;2022-10-13T15:54:20;11.55;;;4.35;;
38113;SDS011;23926;53.222;6.354;2022-10-13T15:56:46;11.02;;;3.70;;
38113;SDS011;23926;53.222;6.354;2022-10-13T15:59:11;13.95;;;5.00;;
38113;SDS011;23926;53.222;6.354;2022-10-13T16:01:37;10.73;;;5.25;;
38113;SDS011;23926;53.222;6.354;2022-10-13T16:04:02;12.00;;;6.82;;
38113;SDS011;23926;53.222;6.354;2022-10-13T16:06:28;13.73;;;6.00;;
38113;SDS011;23926;53.222;6.354;2022-10-13T16:08:53;9.57;;;5.78;;
38113;SDS011;23926;53.222;6.354;2022-10-13T16:11:20;8.82;;;4.85;;
38113;SDS011;23926;53.222;6.354;2022-10-13T16:13:47;11.35;;;4.70;;